Union Mills, Pennsylvania
Current Conditions -  °F | °C
As of 11:35 PM on Tuesday 21 Oct 2014 (Local Time) from KUNV Reporting Station
Overcast Overcast  
Wind Chill: 50°   Ceiling: 8000
Heat Index: 50°   Visibility: 10mi
Dew Point: 47°   Wind: 0mph
Humidity: 91%   Direction: NA
Pressure: 29.96"   Gusts: NA
Location:  40.5962°N, 77.7424°W
Report Text: KUNV 220335Z AUTO 00000KT 10SM SCT065 OVC080 10/08 A2996 RMK AO2 T00980084
Loading
Personal Weather Stations






























Interactive Weather Map
Tropical Storm Tracking
New forecast layout! Learn more

10-Day Weather Forecast

Advertisements
Track Severe Weather on mobile